< < Back
Terminal Aerodrome Forecast


Current Version              Previous Versions:   1  2  3  4  5  6  7  8  9  

Terminal Aerodrome Forecast

597
FTUS42 KGSP 280241 AAA
TAFAND
TAF AMD
KAND 280241Z 2803/2824 06003KT P6SM BKN250
     FM280900 04003KT P6SM SCT250
     FM281400 07007KT P6SM SCT060
     FM282000 13003KT P6SM BKN060=



Latest METAR

413
SAUS70 KWBC 280300 RRE
MTRAND
METAR KAND 280256Z AUTO 06007KT 10SM CLR 15/06 A2990 RMK AO2 SLP119
T01500056 51020


USA.gov is the U.S. government's official web portal to all federal, state and local government web resources and services.